Time;durP1;ratioP1;P1;durP2;ratioP2;P2;SDS_P1;SDS_P2;PMS_P1;PMS_P2;Temp;Humidity;BMP_temperature;BMP_pressure;BME280_temperature;BME280_humidity;BME280_pressure;Samples;Min_cycle;Max_cycle;Signal;HPM_P1;HPM_P2
2023/11/23 00:02:05;;;;;;;35.75;23.85;;;7.30;99.90;;;;;;5056038;28;20207;-80
2023/11/23 00:04:31;;;;;;;44.40;24.55;;;7.30;99.90;;;;;;5058939;28;20188;-79
2023/11/23 00:06:58;;;;;;;37.10;24.35;;;7.40;99.90;;;;;;5069519;28;20219;-78
2023/11/23 00:09:26;;;;;;;39.58;25.20;;;7.40;99.90;;;;;;5069712;28;20352;-79
2023/11/23 00:11:53;;;;;;;40.70;23.63;;;7.40;99.90;;;;;;5051882;28;20196;-80
2023/11/23 00:14:20;;;;;;;39.13;25.48;;;7.30;99.90;;;;;;5054647;28;20658;-78
2023/11/23 00:16:47;;;;;;;39.35;24.13;;;7.40;99.90;;;;;;5063607;28;20212;-78
2023/11/23 00:19:15;;;;;;;36.20;23.35;;;7.40;99.90;;;;;;5071798;28;20219;-78
2023/11/23 00:21:42;;;;;;;36.90;23.70;;;7.50;99.90;;;;;;5067019;28;20506;-78
2023/11/23 00:24:10;;;;;;;43.92;25.30;;;7.50;99.90;;;;;;5071117;28;20277;-79
2023/11/23 00:26:37;;;;;;;43.03;24.98;;;7.50;99.90;;;;;;5063378;28;20234;-78
2023/11/23 00:29:05;;;;;;;42.15;25.45;;;7.50;99.90;;;;;;5060719;28;20254;-79
2023/11/23 00:31:31;;;;;;;44.58;25.80;;;7.50;99.90;;;;;;5054683;28;20258;-80
2023/11/23 00:33:58;;;;;;;46.25;28.63;;;7.50;99.90;;;;;;5045422;28;20203;-80
2023/11/23 00:36:26;;;;;;;44.88;27.83;;;7.50;99.90;;;;;;5053558;28;20640;-80
2023/11/23 00:38:53;;;;;;;43.65;26.15;;;7.40;99.90;;;;;;5047837;28;20224;-79
2023/11/23 00:41:20;;;;;;;47.72;27.42;;;7.50;99.90;;;;;;5054500;28;20206;-80
2023/11/23 00:43:47;;;;;;;49.30;29.08;;;7.50;99.90;;;;;;5054435;28;20281;-80
2023/11/23 00:46:13;;;;;;;49.45;27.70;;;7.40;99.90;;;;;;5053972;28;20204;-79
2023/11/23 00:48:41;;;;;;;53.25;29.23;;;7.40;99.90;;;;;;5053251;28;20680;-80
2023/11/23 00:51:08;;;;;;;52.03;28.73;;;7.40;99.90;;;;;;5047289;28;20200;-80
2023/11/23 00:53:37;;;;;;;50.03;30.73;;;7.40;99.90;;;;;;5058024;28;20609;-80
2023/11/23 00:56:04;;;;;;;51.15;32.38;;;7.40;99.90;;;;;;5049056;28;20212;-82
2023/11/23 00:58:31;;;;;;;54.08;31.42;;;7.40;99.90;;;;;;5057069;28;20268;-80
2023/11/23 01:00:58;;;;;;;56.38;30.48;;;7.40;99.90;;;;;;5051160;28;20719;-80
2023/11/23 01:03:26;;;;;;;57.17;32.70;;;7.40;99.90;;;;;;5047484;28;20196;-80
2023/11/23 01:05:53;;;;;;;52.78;31.95;;;7.40;99.90;;;;;;5056709;28;20205;-79
2023/11/23 01:08:19;;;;;;;50.20;30.73;;;7.40;99.90;;;;;;5068804;28;20256;-80
2023/11/23 01:10:48;;;;;;;56.50;29.95;;;7.50;99.90;;;;;;5074968;28;20228;-79
2023/11/23 01:13:15;;;;;;;59.35;33.70;;;7.50;99.90;;;;;;5055876;28;20232;-79
2023/11/23 01:15:42;;;;;;;52.15;31.17;;;7.50;99.90;;;;;;5045938;28;20225;-80
2023/11/23 01:18:08;;;;;;;75.13;30.50;;;7.50;99.90;;;;;;5050391;28;20216;-80
2023/11/23 01:20:35;;;;;;;63.28;31.60;;;7.60;99.90;;;;;;5043050;28;20318;-79
2023/11/23 01:23:02;;;;;;;60.50;33.08;;;7.60;99.90;;;;;;5046076;28;20204;-79
2023/11/23 01:25:29;;;;;;;60.80;33.22;;;7.60;99.90;;;;;;5057717;28;20271;-80
2023/11/23 01:27:57;;;;;;;56.42;34.03;;;7.60;99.90;;;;;;5045028;28;20196;-80
2023/11/23 01:30:24;;;;;;;55.00;34.45;;;7.70;99.90;;;;;;5053841;28;20236;-79
2023/11/23 01:32:50;;;;;;;64.18;35.70;;;7.70;99.90;;;;;;5052475;28;20291;-80
2023/11/23 01:35:20;;;;;;;55.35;32.65;;;7.80;99.90;;;;;;5055365;28;20219;-78
2023/11/23 01:37:47;;;;;;;57.38;34.63;;;7.80;99.90;;;;;;5054845;28;20278;-78
2023/11/23 01:40:14;;;;;;;58.08;35.65;;;7.80;99.90;;;;;;5055657;28;20251;-78
2023/11/23 01:42:41;;;;;;;55.65;33.85;;;7.80;99.90;;;;;;5059939;28;20635;-79
2023/11/23 01:45:10;;;;;;;58.33;33.00;;;7.80;99.90;;;;;;5059961;28;20266;-79
2023/11/23 01:47:41;;;;;;;56.50;30.83;;;7.90;99.90;;;;;;5058917;28;20259;-79
2023/11/23 01:50:09;;;;;;;54.80;33.47;;;7.90;99.90;;;;;;5056659;28;20251;-79
2023/11/23 01:52:37;;;;;;;57.72;33.72;;;7.90;99.90;;;;;;5062930;28;20195;-78
2023/11/23 01:55:05;;;;;;;46.15;32.10;;;8.10;99.90;;;;;;5061854;28;20235;-78
2023/11/23 01:57:36;;;;;;;59.40;34.25;;;8.00;99.90;;;;;;5054380;28;20311;-80
2023/11/23 02:00:04;;;;;;;57.10;32.85;;;8.00;99.90;;;;;;5054787;28;20303;-79
2023/11/23 02:02:32;;;;;;;61.70;34.92;;;8.00;99.90;;;;;;5049753;28;20204;-80
2023/11/23 02:04:59;;;;;;;50.88;32.90;;;8.10;99.90;;;;;;5050824;28;20200;-79
2023/11/23 02:07:26;;;;;;;55.25;31.23;;;8.10;99.90;;;;;;5045471;28;20207;-80
2023/11/23 02:09:53;;;;;;;54.50;32.13;;;8.10;99.90;;;;;;5055947;28;20220;-79
2023/11/23 02:12:22;;;;;;;50.80;32.83;;;8.20;99.90;;;;;;5042068;28;20208;-79
2023/11/23 02:14:50;;;;;;;58.63;37.75;;;8.30;99.90;;;;;;5044746;28;20201;-80
2023/11/23 02:17:18;;;;;;;57.28;31.88;;;8.30;99.90;;;;;;5051086;28;20206;-79
2023/11/23 02:19:47;;;;;;;41.35;27.77;;;8.30;99.90;;;;;;5058480;28;20234;-78
2023/11/23 02:22:14;;;;;;;45.20;30.20;;;8.40;99.90;;;;;;5050425;28;20299;-79
2023/11/23 02:24:43;;;;;;;56.50;32.85;;;8.40;99.90;;;;;;5047544;28;20447;-80
2023/11/23 02:27:11;;;;;;;49.85;32.63;;;8.40;99.90;;;;;;5047580;28;20202;-78
2023/11/23 02:29:38;;;;;;;42.78;29.75;;;8.50;99.90;;;;;;5055489;28;20294;-79
2023/11/23 02:32:07;;;;;;;48.42;32.47;;;8.60;99.90;;;;;;5055587;28;20263;-79
2023/11/23 02:34:34;;;;;;;48.85;29.52;;;8.50;99.90;;;;;;5061523;28;20285;-80
2023/11/23 02:37:01;;;;;;;55.67;31.45;;;8.50;99.90;;;;;;5062700;28;20283;-78
2023/11/23 02:39:28;;;;;;;42.40;30.05;;;8.50;99.90;;;;;;5057682;28;20250;-78
2023/11/23 02:41:57;;;;;;;56.38;35.03;;;8.50;99.90;;;;;;5051990;28;20219;-80
2023/11/23 02:44:24;;;;;;;48.20;32.33;;;8.50;99.90;;;;;;5059274;28;20208;-81
2023/11/23 02:46:51;;;;;;;52.45;31.02;;;8.50;99.90;;;;;;5051876;28;20210;-80
2023/11/23 02:49:18;;;;;;;57.33;34.30;;;8.50;99.90;;;;;;5050676;28;20216;-79
2023/11/23 02:51:46;;;;;;;53.22;33.45;;;8.50;99.90;;;;;;5053317;28;20302;-79
2023/11/23 02:54:13;;;;;;;54.83;32.47;;;8.50;99.90;;;;;;5048808;28;20217;-79
2023/11/23 02:56:40;;;;;;;56.17;33.25;;;8.50;99.90;;;;;;5052414;28;20205;-81
2023/11/23 02:59:08;;;;;;;55.95;36.10;;;8.50;99.90;;;;;;5055713;28;20238;-79
2023/11/23 03:01:35;;;;;;;58.63;34.97;;;8.60;99.90;;;;;;5055914;28;20204;-81
2023/11/23 03:04:04;;;;;;;57.20;33.95;;;8.60;99.90;;;;;;5055030;28;20201;-78
2023/11/23 03:06:31;;;;;;;51.83;32.60;;;8.60;99.90;;;;;;5056883;28;20200;-79
2023/11/23 03:08:58;;;;;;;48.78;31.40;;;8.60;99.90;;;;;;5048684;28;20787;-79
2023/11/23 03:11:26;;;;;;;55.03;35.60;;;8.60;99.90;;;;;;5058405;28;20212;-79
2023/11/23 03:13:53;;;;;;;57.20;35.30;;;8.60;99.90;;;;;;5056525;28;20260;-80
2023/11/23 03:16:21;;;;;;;53.25;34.25;;;8.70;99.90;;;;;;5051488;28;20571;-79
2023/11/23 03:18:48;;;;;;;59.20;35.10;;;8.70;99.90;;;;;;5057519;28;20234;-79
2023/11/23 03:21:15;;;;;;;58.05;35.83;;;8.70;99.90;;;;;;5052021;28;20296;-80
2023/11/23 03:23:42;;;;;;;58.60;36.92;;;8.70;99.90;;;;;;5057100;28;20784;-78
2023/11/23 03:26:09;;;;;;;58.65;36.30;;;8.80;99.90;;;;;;5057078;28;20287;-79
2023/11/23 03:28:36;;;;;;;50.15;31.85;;;8.80;99.90;;;;;;5052392;28;20257;-78
2023/11/23 03:31:03;;;;;;;49.08;34.65;;;8.90;99.90;;;;;;5057680;28;20285;-79
2023/11/23 03:33:31;;;;;;;53.90;32.65;;;9.00;99.90;;;;;;5060980;28;20195;-78
2023/11/23 03:35:58;;;;;;;56.53;35.72;;;9.00;99.90;;;;;;5052077;28;20276;-79
2023/11/23 03:38:25;;;;;;;56.90;33.13;;;9.10;99.90;;;;;;5051252;28;20226;-79
2023/11/23 03:40:52;;;;;;;53.45;37.40;;;9.00;99.90;;;;;;5052309;28;20229;-78
2023/11/23 03:43:19;;;;;;;62.28;39.10;;;9.00;99.90;;;;;;5059922;28;20207;-77
2023/11/23 03:45:46;;;;;;;49.97;33.67;;;9.20;99.90;;;;;;5060368;28;20576;-78
2023/11/23 03:48:13;;;;;;;58.50;37.20;;;9.10;99.90;;;;;;5062369;28;20536;-79
2023/11/23 03:50:41;;;;;;;53.45;33.63;;;9.10;99.90;;;;;;5055204;28;20265;-78
2023/11/23 03:53:08;;;;;;;51.58;35.53;;;9.20;99.90;;;;;;5057471;28;20206;-78
2023/11/23 03:55:35;;;;;;;60.40;36.53;;;9.20;99.90;;;;;;5053078;28;20203;-79
2023/11/23 03:58:02;;;;;;;53.90;33.58;;;9.20;99.90;;;;;;5057399;28;20252;-78
2023/11/23 04:00:29;;;;;;;57.90;37.05;;;9.30;99.90;;;;;;5054674;28;20322;-78
2023/11/23 04:02:56;;;;;;;53.90;34.35;;;9.30;99.90;;;;;;5044274;28;20201;-78
2023/11/23 04:05:23;;;;;;;60.42;36.03;;;9.40;99.90;;;;;;5054687;28;20227;-77
2023/11/23 04:07:51;;;;;;;58.38;36.53;;;9.30;99.90;;;;;;5046272;28;20202;-77
2023/11/23 04:10:18;;;;;;;46.72;32.20;;;9.40;99.90;;;;;;5049092;28;20243;-77
2023/11/23 04:12:45;;;;;;;60.78;38.22;;;9.40;99.90;;;;;;5046501;28;20207;-78
2023/11/23 04:15:13;;;;;;;50.35;34.42;;;9.50;99.90;;;;;;5043498;28;20279;-78
2023/11/23 04:17:39;;;;;;;54.28;34.50;;;9.50;99.90;;;;;;5046267;28;20206;-79
2023/11/23 04:20:07;;;;;;;56.78;35.63;;;9.50;99.90;;;;;;5047226;28;20226;-80
2023/11/23 04:22:34;;;;;;;53.65;34.40;;;9.50;99.90;;;;;;5050073;28;20291;-79
2023/11/23 04:25:03;;;;;;;49.70;35.25;;;9.60;99.90;;;;;;5056904;28;20658;-80
2023/11/23 04:27:30;;;;;;;53.53;34.35;;;9.60;99.90;;;;;;5059030;28;20199;-80
2023/11/23 04:29:57;;;;;;;55.50;34.72;;;9.60;99.90;;;;;;5054521;28;20218;-79
2023/11/23 04:32:24;;;;;;;59.40;33.85;;;9.70;99.90;;;;;;5043324;28;20291;-78
2023/11/23 04:34:51;;;;;;;55.08;34.95;;;9.70;99.90;;;;;;5054513;28;20202;-78
2023/11/23 04:37:18;;;;;;;48.25;31.98;;;9.80;99.90;;;;;;5059877;28;20223;-79
2023/11/23 04:39:45;;;;;;;46.20;32.65;;;9.80;99.90;;;;;;5040377;28;20312;-81
2023/11/23 04:42:13;;;;;;;49.00;32.90;;;9.80;99.90;;;;;;5040694;28;20250;-78
2023/11/23 04:44:40;;;;;;;46.60;31.90;;;9.90;99.90;;;;;;5049175;28;20652;-79
2023/11/23 04:47:07;;;;;;;39.17;29.30;;;9.90;99.90;;;;;;5041714;28;20251;-80
2023/11/23 04:49:34;;;;;;;47.65;30.92;;;10.00;99.90;;;;;;5045960;28;20231;-81
2023/11/23 04:52:01;;;;;;;47.10;30.30;;;10.10;99.90;;;;;;5045349;28;20196;-79
2023/11/23 04:54:28;;;;;;;43.97;29.13;;;10.10;99.90;;;;;;5053558;28;20293;-78
2023/11/23 04:56:54;;;;;;;47.28;30.38;;;10.10;99.90;;;;;;5050529;28;20204;-79
2023/11/23 04:59:23;;;;;;;49.45;30.27;;;10.10;99.90;;;;;;5069267;28;20298;-79
2023/11/23 05:01:49;;;;;;;40.55;27.38;;;10.20;99.90;;;;;;5070515;28;20655;-78
2023/11/23 05:04:16;;;;;;;34.30;26.25;;;10.20;99.90;;;;;;5061120;28;20221;-79
2023/11/23 05:06:43;;;;;;;36.50;24.92;;;10.20;99.90;;;;;;5057208;28;20200;-79
2023/11/23 05:09:10;;;;;;;35.95;26.50;;;10.30;99.90;;;;;;5046757;28;20222;-80
2023/11/23 05:11:37;;;;;;;35.22;27.27;;;10.30;99.90;;;;;;5050757;28;20205;-80
2023/11/23 05:14:07;;;;;;;30.80;23.05;;;10.30;99.90;;;;;;5051330;28;20293;-79
2023/11/23 05:16:35;;;;;;;35.30;22.98;;;10.40;99.90;;;;;;5044816;28;20215;-78
2023/11/23 05:19:02;;;;;;;28.40;23.58;;;10.50;99.90;;;;;;5050430;28;20217;-78
2023/11/23 05:21:30;;;;;;;29.25;22.08;;;10.50;99.90;;;;;;5049148;28;20212;-78
2023/11/23 05:23:56;;;;;;;29.95;20.98;;;10.50;99.90;;;;;;5051731;28;20204;-78
2023/11/23 05:26:23;;;;;;;27.42;20.60;;;10.50;99.90;;;;;;5053159;28;20218;-78
2023/11/23 05:28:50;;;;;;;29.73;19.45;;;10.60;99.90;;;;;;5054720;28;20202;-78
2023/11/23 05:31:17;;;;;;;26.00;19.27;;;10.60;99.90;;;;;;5057455;28;20208;-77
2023/11/23 05:33:45;;;;;;;21.83;17.02;;;10.60;99.90;;;;;;5054590;28;20233;-79
2023/11/23 05:36:12;;;;;;;26.30;18.08;;;10.70;99.90;;;;;;5056524;28;20652;-79
2023/11/23 05:38:39;;;;;;;26.45;19.45;;;10.70;99.90;;;;;;5045681;28;20220;-79
2023/11/23 05:41:06;;;;;;;21.88;16.88;;;10.80;99.90;;;;;;5057217;28;20219;-79
2023/11/23 05:43:32;;;;;;;26.65;17.30;;;10.80;99.90;;;;;;5052626;28;20290;-80
2023/11/23 05:46:00;;;;;;;27.52;17.60;;;10.80;99.90;;;;;;5053439;28;20607;-79
2023/11/23 05:48:27;;;;;;;22.15;15.30;;;10.90;99.90;;;;;;5056867;28;20267;-80
2023/11/23 05:50:55;;;;;;;22.27;15.75;;;10.90;99.90;;;;;;5051532;28;20310;-80
2023/11/23 05:53:22;;;;;;;28.70;17.02;;;11.00;99.90;;;;;;5062760;28;20266;-77
2023/11/23 05:55:48;;;;;;;22.27;15.57;;;11.00;99.90;;;;;;5051612;28;20206;-80
2023/11/23 05:59:01;;;;;;;19.35;13.95;;;11.00;99.90;;;;;;5064744;28;20232;-87
2023/11/23 06:07:38;;;;;;;17.83;12.95;;;11.10;99.90;;;;;;5026809;28;20260;-84
2023/11/23 06:10:06;;;;;;;21.60;14.75;;;11.00;99.90;;;;;;5022850;28;20329;-82
2023/11/23 06:12:33;;;;;;;21.50;13.25;;;11.10;99.90;;;;;;5043775;28;20209;-79
2023/11/23 06:15:02;;;;;;;21.77;12.88;;;11.10;99.90;;;;;;5059359;28;20260;-80
2023/11/23 06:17:29;;;;;;;18.50;13.20;;;11.10;99.90;;;;;;5059487;28;20207;-82
2023/11/23 06:19:56;;;;;;;16.98;11.77;;;11.20;99.90;;;;;;5058867;28;20224;-83
2023/11/23 06:22:22;;;;;;;16.85;11.88;;;11.10;99.90;;;;;;5055900;28;20230;-82
2023/11/23 06:24:51;;;;;;;24.80;13.63;;;11.10;99.90;;;;;;5060660;28;20225;-83
2023/11/23 06:27:18;;;;;;;36.75;14.50;;;11.10;99.90;;;;;;5057682;28;20296;-82
2023/11/23 06:29:45;;;;;;;17.50;12.25;;;11.20;99.90;;;;;;5052572;28;20226;-80
2023/11/23 06:32:12;;;;;;;16.95;12.55;;;11.10;99.90;;;;;;5056373;28;20200;-81
2023/11/23 06:34:39;;;;;;;23.80;12.97;;;11.20;99.90;;;;;;5054651;28;20564;-79
2023/11/23 06:37:06;;;;;;;17.73;10.90;;;11.20;99.90;;;;;;5058603;28;20446;-80
2023/11/23 06:39:37;;;;;;;22.52;12.38;;;11.20;99.90;;;;;;5057077;28;20221;-82
2023/11/23 06:42:06;;;;;;;16.00;13.35;;;11.10;99.90;;;;;;5058071;28;20271;-83
2023/11/23 06:44:32;;;;;;;22.45;11.35;;;11.20;99.90;;;;;;5064252;28;20204;-83
2023/11/23 06:47:00;;;;;;;22.85;12.18;;;11.20;99.90;;;;;;5062093;28;20699;-82
2023/11/23 06:49:27;;;;;;;25.77;12.75;;;11.10;99.90;;;;;;5054891;28;20208;-81
2023/11/23 06:51:55;;;;;;;18.33;12.00;;;11.10;99.90;;;;;;5071749;28;20210;-81
2023/11/23 06:54:21;;;;;;;20.13;10.73;;;11.10;99.90;;;;;;5063955;28;20199;-81
2023/11/23 06:56:48;;;;;;;25.05;12.30;;;11.10;99.90;;;;;;5066487;28;20266;-79
2023/11/23 06:59:18;;;;;;;25.75;12.93;;;11.10;99.90;;;;;;5060752;28;20235;-82
2023/11/23 07:01:46;;;;;;;23.35;11.50;;;11.10;99.90;;;;;;5062257;28;20205;-82
2023/11/23 07:04:13;;;;;;;16.00;11.05;;;11.10;99.90;;;;;;5055711;28;21332;-82
2023/11/23 07:06:40;;;;;;;22.13;12.13;;;11.00;99.90;;;;;;5066133;28;20220;-82
2023/11/23 07:09:07;;;;;;;18.80;11.85;;;11.00;99.90;;;;;;5057344;28;20247;-82
2023/11/23 07:11:34;;;;;;;14.73;10.05;;;11.10;99.90;;;;;;5049688;28;20674;-83
2023/11/23 07:14:01;;;;;;;14.38;10.25;;;11.20;99.90;;;;;;5054556;28;20196;-83
2023/11/23 07:16:29;;;;;;;25.20;10.88;;;11.00;99.90;;;;;;5062248;28;20220;-82
2023/11/23 07:18:56;;;;;;;18.65;10.23;;;11.10;99.90;;;;;;5061947;28;20307;-82
2023/11/23 07:21:23;;;;;;;15.98;10.93;;;11.10;99.90;;;;;;5058876;28;20208;-82
2023/11/23 07:23:50;;;;;;;17.52;9.88;;;11.10;99.90;;;;;;5059544;28;20292;-82
2023/11/23 07:26:16;;;;;;;20.65;10.00;;;11.10;99.90;;;;;;5060528;28;20209;-82
2023/11/23 07:28:43;;;;;;;15.65;9.02;;;11.00;99.90;;;;;;5063693;28;20211;-83
2023/11/23 07:31:10;;;;;;;18.05;10.63;;;11.10;99.90;;;;;;5068866;28;20194;-83
2023/11/23 07:33:38;;;;;;;16.83;10.20;;;11.10;99.90;;;;;;5062187;28;20343;-82
2023/11/23 07:36:06;;;;;;;19.52;8.77;;;11.10;99.90;;;;;;5067615;28;20206;-81
2023/11/23 07:38:33;;;;;;;16.77;8.95;;;11.10;99.90;;;;;;5063131;28;20183;-81
2023/11/23 07:41:01;;;;;;;13.88;7.35;;;11.10;99.90;;;;;;5063425;28;20693;-84
2023/11/23 07:43:28;;;;;;;11.10;7.22;;;11.10;99.90;;;;;;5065245;28;20215;-80
2023/11/23 07:45:55;;;;;;;13.32;7.70;;;11.10;99.90;;;;;;5067445;28;20436;-81
2023/11/23 07:48:22;;;;;;;9.73;6.40;;;11.20;99.90;;;;;;5065106;28;20216;-81
2023/11/23 07:50:50;;;;;;;16.58;7.07;;;11.20;99.90;;;;;;5067520;28;20237;-83
2023/11/23 07:53:17;;;;;;;12.98;7.80;;;11.20;99.90;;;;;;5060811;28;20231;-84
2023/11/23 07:55:44;;;;;;;17.05;7.72;;;11.20;99.90;;;;;;5056736;28;20268;-81
2023/11/23 07:58:11;;;;;;;12.75;6.28;;;11.30;99.90;;;;;;5058043;28;20222;-83
2023/11/23 08:00:38;;;;;;;10.63;5.75;;;11.40;99.90;;;;;;5054922;28;20256;-81
2023/11/23 08:03:05;;;;;;;15.68;6.95;;;11.50;99.90;;;;;;5052203;28;20217;-82
2023/11/23 08:05:34;;;;;;;20.90;7.10;;;11.50;99.90;;;;;;5048780;28;20214;-82
2023/11/23 08:08:03;;;;;;;17.10;6.50;;;11.40;99.90;;;;;;5052799;28;20209;-81
2023/11/23 08:10:30;;;;;;;10.48;5.88;;;11.50;99.90;;;;;;5047543;28;20216;-81
2023/11/23 08:12:58;;;;;;;12.98;4.10;;;11.40;99.90;;;;;;5052276;28;20286;-82
2023/11/23 08:15:25;;;;;;;11.05;6.40;;;11.50;99.90;;;;;;5063385;28;20214;-83
2023/11/23 08:17:52;;;;;;;15.75;6.70;;;11.50;99.90;;;;;;5054798;28;20204;-80
2023/11/23 08:20:20;;;;;;;11.25;4.82;;;11.60;99.90;;;;;;5060032;28;20234;-81
2023/11/23 08:22:47;;;;;;;8.93;4.35;;;11.70;99.90;;;;;;5056632;28;20200;-81
2023/11/23 08:25:15;;;;;;;16.48;6.18;;;11.70;99.90;;;;;;5063793;28;20259;-80
2023/11/23 08:27:42;;;;;;;10.50;5.05;;;11.70;99.90;;;;;;5060134;28;20275;-81
2023/11/23 08:30:12;;;;;;;5.32;3.58;;;11.80;99.90;;;;;;5054399;28;20288;-83
2023/11/23 08:32:39;;;;;;;13.13;5.63;;;11.90;99.90;;;;;;5066334;28;20209;-81
2023/11/23 08:35:08;;;;;;;22.42;4.80;;;11.90;99.90;;;;;;5066815;28;20842;-82
2023/11/23 08:37:35;;;;;;;8.23;3.45;;;12.00;99.90;;;;;;5070878;28;20217;-81
2023/11/23 08:40:04;;;;;;;13.90;3.13;;;12.00;99.90;;;;;;5066345;28;20524;-81
2023/11/23 08:42:33;;;;;;;16.70;3.33;;;12.00;99.90;;;;;;5066841;28;20196;-81
2023/11/23 08:45:00;;;;;;;11.15;2.95;;;12.10;99.90;;;;;;5055213;28;20203;-82
2023/11/23 08:47:27;;;;;;;7.25;3.42;;;12.10;99.90;;;;;;5063460;28;20450;-82
2023/11/23 08:49:55;;;;;;;10.68;4.32;;;12.20;99.90;;;;;;5054134;28;20237;-81
2023/11/23 08:52:22;;;;;;;9.27;4.53;;;12.20;99.90;;;;;;5061794;28;20201;-81
2023/11/23 08:54:49;;;;;;;8.60;3.17;;;12.30;99.90;;;;;;5067878;28;20445;-83
2023/11/23 08:57:16;;;;;;;14.60;4.45;;;12.30;99.90;;;;;;5071314;28;20260;-81
2023/11/23 08:59:44;;;;;;;14.20;2.97;;;12.40;99.90;;;;;;5073373;28;20225;-83
2023/11/23 09:02:11;;;;;;;7.78;2.85;;;12.40;99.90;;;;;;5067547;28;20200;-82
2023/11/23 09:04:41;;;;;;;7.70;2.85;;;12.40;99.90;;;;;;5069366;28;20259;-83
2023/11/23 09:07:08;;;;;;;10.50;3.58;;;12.50;99.90;;;;;;5064893;28;20195;-82
2023/11/23 09:09:35;;;;;;;6.40;3.60;;;12.50;99.90;;;;;;5063576;28;20213;-83
2023/11/23 09:12:02;;;;;;;10.15;3.05;;;12.40;99.90;;;;;;5067431;28;20497;-84
2023/11/23 09:14:29;;;;;;;9.45;2.95;;;12.40;99.90;;;;;;5065229;28;20289;-83
2023/11/23 09:16:57;;;;;;;11.57;3.95;;;12.30;99.90;;;;;;5054100;28;20239;-83
2023/11/23 09:19:24;;;;;;;13.27;3.30;;;12.40;99.90;;;;;;5058766;28;20243;-83
2023/11/23 09:21:54;;;;;;;12.10;3.20;;;12.40;99.90;;;;;;5055873;28;20267;-83
2023/11/23 09:24:21;;;;;;;9.23;3.08;;;12.40;99.90;;;;;;5070536;28;20444;-83
2023/11/23 09:26:48;;;;;;;7.93;2.92;;;12.50;99.90;;;;;;5064120;28;20618;-83
2023/11/23 09:29:15;;;;;;;11.25;3.53;;;12.50;99.90;;;;;;5058538;28;20231;-84
2023/11/23 09:31:42;;;;;;;10.60;3.15;;;12.60;99.90;;;;;;5071211;28;20217;-84
2023/11/23 09:34:11;;;;;;;4.57;3.47;;;12.50;99.90;;;;;;5065634;28;20206;-84
2023/11/23 09:36:39;;;;;;;9.85;2.85;;;12.70;99.90;;;;;;5057548;28;20189;-83
2023/11/23 09:39:06;;;;;;;5.25;3.15;;;12.60;99.90;;;;;;5069057;28;20243;-84
2023/11/23 09:41:36;;;;;;;8.40;3.08;;;12.70;99.90;;;;;;5073277;28;20288;-84
2023/11/23 09:44:03;;;;;;;9.15;2.63;;;12.70;99.90;;;;;;5068043;28;20196;-84
2023/11/23 09:46:31;;;;;;;10.15;2.53;;;12.70;99.90;;;;;;5073278;28;20204;-84
2023/11/23 09:49:00;;;;;;;7.20;2.65;;;12.70;99.90;;;;;;5075846;28;20227;-85
2023/11/23 09:51:30;;;;;;;7.97;2.83;;;12.80;99.90;;;;;;5076099;28;20187;-84
2023/11/23 09:53:59;;;;;;;6.90;2.35;;;12.80;99.90;;;;;;5068094;28;20189;-85
2023/11/23 09:56:26;;;;;;;5.03;2.28;;;12.90;99.90;;;;;;5061270;28;20217;-84
2023/11/23 09:58:53;;;;;;;9.77;2.75;;;12.80;99.90;;;;;;5065226;28;20209;-85
2023/11/23 10:01:37;;;;;;;6.65;2.50;;;12.90;99.90;;;;;;5058314;28;20236;-87
2023/11/23 10:04:05;;;;;;;12.68;2.35;;;12.90;99.90;;;;;;5057994;28;20210;-85
2023/11/23 10:06:34;;;;;;;5.13;3.20;;;12.80;99.90;;;;;;5067502;28;20259;-84
2023/11/23 10:09:01;;;;;;;7.93;2.85;;;12.90;99.90;;;;;;5063363;28;20450;-85
2023/11/23 10:11:28;;;;;;;7.35;3.20;;;13.00;99.90;;;;;;5074304;28;20220;-84
2023/11/23 10:13:55;;;;;;;9.40;3.92;;;12.90;99.90;;;;;;5062301;28;20230;-84
2023/11/23 10:16:21;;;;;;;6.57;2.20;;;13.00;99.90;;;;;;5068892;28;20215;-86
2023/11/23 10:18:48;;;;;;;5.43;2.20;;;13.00;99.90;;;;;;5070116;28;20207;-85
2023/11/23 10:21:16;;;;;;;8.23;2.65;;;13.00;99.90;;;;;;5065603;28;20278;-83
2023/11/23 10:23:44;;;;;;;4.45;2.13;;;12.90;99.90;;;;;;5056739;28;20307;-83
2023/11/23 10:26:11;;;;;;;4.25;2.28;;;13.00;99.90;;;;;;5049671;28;20224;-85
2023/11/23 10:28:41;;;;;;;8.25;2.38;;;13.00;99.90;;;;;;5057692;28;20268;-83
2023/11/23 10:31:08;;;;;;;8.60;2.47;;;13.00;99.90;;;;;;5062662;28;20205;-81
2023/11/23 10:33:36;;;;;;;5.35;2.35;;;13.00;99.90;;;;;;5056565;28;20231;-82
2023/11/23 10:36:05;;;;;;;7.25;2.90;;;13.10;99.90;;;;;;5058308;28;20201;-81
2023/11/23 10:38:38;;;;;;;3.58;1.92;;;13.20;99.90;;;;;;5060668;28;20251;-83
2023/11/23 10:41:08;;;;;;;16.80;3.13;;;13.10;99.90;;;;;;5066221;28;20237;-83
2023/11/23 10:43:37;;;;;;;6.43;2.42;;;13.10;99.90;;;;;;5063998;28;20208;-82
2023/11/23 10:46:08;;;;;;;5.13;2.88;;;13.20;99.90;;;;;;5054726;28;20214;-84
2023/11/23 10:48:36;;;;;;;3.95;2.38;;;13.20;99.90;;;;;;5057474;28;20240;-83
2023/11/23 10:51:05;;;;;;;8.77;2.77;;;13.20;99.90;;;;;;5057861;28;20231;-84
2023/11/23 10:53:32;;;;;;;8.50;2.95;;;13.30;99.90;;;;;;5062145;28;20443;-83
2023/11/23 10:56:01;;;;;;;7.18;2.25;;;13.40;99.90;;;;;;5058389;28;20229;-84
2023/11/23 10:58:37;;;;;;;5.38;2.60;;;13.40;99.90;;;;;;5066634;28;20206;-84
2023/11/23 11:01:07;;;;;;;5.22;2.53;;;13.30;99.90;;;;;;5064634;28;20687;-83
2023/11/23 11:03:35;;;;;;;7.97;2.33;;;13.30;99.90;;;;;;5073930;28;20260;-85
2023/11/23 11:06:08;;;;;;;10.70;2.72;;;13.30;99.90;;;;;;5069948;28;20227;-86
2023/11/23 11:08:38;;;;;;;7.40;2.60;;;13.40;99.90;;;;;;5061690;28;20196;-85
2023/11/23 11:11:10;;;;;;;9.10;2.65;;;13.30;99.90;;;;;;5060927;28;20259;-85
2023/11/23 11:13:42;;;;;;;14.13;2.50;;;13.40;99.90;;;;;;5057388;28;20208;-83
2023/11/23 11:16:12;;;;;;;5.50;2.97;;;13.40;99.90;;;;;;5062098;28;20267;-84
2023/11/23 11:18:39;;;;;;;6.65;2.58;;;13.30;99.90;;;;;;5064217;28;20203;-85
2023/11/23 11:21:10;;;;;;;8.85;2.63;;;13.30;99.90;;;;;;5068136;28;20291;-84
2023/11/23 11:23:38;;;;;;;7.93;3.15;;;13.40;99.90;;;;;;5055490;28;20205;-81
2023/11/23 11:26:11;;;;;;;9.45;2.95;;;13.50;99.90;;;;;;5057847;28;20255;-87
2023/11/23 11:28:38;;;;;;;10.43;2.97;;;13.60;99.90;;;;;;5057698;28;20279;-87
2023/11/23 11:31:08;;;;;;;7.57;3.50;;;13.70;99.90;;;;;;5053058;28;20225;-85
2023/11/23 11:33:38;;;;;;;7.75;3.08;;;13.50;99.90;;;;;;5064983;28;20215;-83
2023/11/23 11:36:07;;;;;;;9.23;2.63;;;13.40;99.90;;;;;;5053507;28;20209;-86
2023/11/23 11:38:35;;;;;;;6.00;2.90;;;13.40;99.90;;;;;;5058677;28;20196;-84
2023/11/23 11:41:04;;;;;;;8.35;3.25;;;13.50;99.90;;;;;;5062867;28;20285;-86
2023/11/23 11:43:33;;;;;;;4.22;1.83;;;13.60;99.90;;;;;;5054323;28;20216;-83
2023/11/23 11:46:00;;;;;;;6.90;3.17;;;13.50;99.90;;;;;;5057959;28;20319;-85
2023/11/23 11:48:28;;;;;;;8.23;2.50;;;13.60;99.90;;;;;;5051681;28;20219;-84
2023/11/23 11:50:56;;;;;;;8.43;2.80;;;13.50;99.90;;;;;;5066709;28;20284;-84
2023/11/23 11:53:23;;;;;;;3.15;1.80;;;13.40;99.90;;;;;;5060999;28;20208;-82
2023/11/23 11:55:52;;;;;;;11.77;3.72;;;13.50;99.90;;;;;;5059592;28;20263;-85
2023/11/23 11:58:20;;;;;;;4.13;2.13;;;13.50;99.90;;;;;;5063023;28;20222;-85
2023/11/23 12:00:48;;;;;;;3.28;1.45;;;13.50;99.90;;;;;;5056650;28;20306;-86
2023/11/23 12:03:16;;;;;;;4.78;2.40;;;13.60;99.90;;;;;;5056613;28;20287;-84
2023/11/23 12:05:45;;;;;;;10.38;2.50;;;13.50;99.90;;;;;;5047909;28;20295;-86
2023/11/23 12:08:12;;;;;;;5.85;2.15;;;13.50;99.90;;;;;;5061006;28;20485;-83
2023/11/23 12:10:39;;;;;;;4.70;2.42;;;13.50;99.90;;;;;;5059706;28;20228;-83
2023/11/23 12:13:07;;;;;;;7.28;2.47;;;13.60;99.90;;;;;;5044831;28;20205;-83
2023/11/23 12:15:35;;;;;;;6.75;2.35;;;13.60;99.90;;;;;;5065453;28;20211;-84
2023/11/23 12:18:03;;;;;;;5.65;3.17;;;13.60;99.90;;;;;;5063509;28;20276;-84
2023/11/23 12:20:37;;;;;;;8.48;2.97;;;13.70;99.90;;;;;;5055907;28;20301;-84
2023/11/23 12:23:06;;;;;;;7.28;3.00;;;13.70;99.90;;;;;;5066318;28;20226;-85
2023/11/23 12:25:34;;;;;;;7.57;1.80;;;13.60;99.90;;;;;;5056838;28;20195;-84
2023/11/23 12:28:02;;;;;;;5.55;1.90;;;13.50;99.90;;;;;;5062263;28;20200;-81
2023/11/23 12:30:29;;;;;;;5.40;2.13;;;13.50;99.90;;;;;;5049872;28;20243;-84
2023/11/23 12:32:57;;;;;;;5.25;2.22;;;13.60;99.90;;;;;;5048073;28;20223;-84
2023/11/23 12:35:24;;;;;;;8.05;2.60;;;13.40;99.90;;;;;;5057717;28;20544;-85
2023/11/23 12:37:51;;;;;;;5.35;2.53;;;13.70;99.90;;;;;;5051726;28;20208;-83
2023/11/23 12:40:19;;;;;;;12.25;2.72;;;13.70;99.90;;;;;;5047734;28;20287;-85
2023/11/23 12:42:47;;;;;;;5.80;2.30;;;13.50;99.90;;;;;;5045384;28;20221;-86
2023/11/23 12:45:14;;;;;;;4.43;2.28;;;13.60;99.90;;;;;;5060533;28;20239;-83
2023/11/23 12:47:41;;;;;;;10.00;3.20;;;13.60;99.90;;;;;;5063416;28;20211;-85